sensor_id;sensor_type;location;lat;lon;timestamp;P1;durP1;ratioP1;P2;durP2;ratioP2
22634;SDS011;11484;50.858;4.384;2023-07-30T00:02:17;10.48;;;3.28;;
22634;SDS011;11484;50.858;4.384;2023-07-30T00:04:46;6.68;;;2.75;;
22634;SDS011;11484;50.858;4.384;2023-07-30T00:07:12;7.53;;;2.30;;
22634;SDS011;11484;50.858;4.384;2023-07-30T00:09:38;7.07;;;2.38;;
22634;SDS011;11484;50.858;4.384;2023-07-30T00:12:05;11.18;;;3.05;;
22634;SDS011;11484;50.858;4.384;2023-07-30T00:14:32;7.78;;;3.03;;
22634;SDS011;11484;50.858;4.384;2023-07-30T00:16:58;8.45;;;2.80;;
22634;SDS011;11484;50.858;4.384;2023-07-30T00:19:24;8.25;;;2.90;;
22634;SDS011;11484;50.858;4.384;2023-07-30T00:21:50;8.30;;;2.85;;
22634;SDS011;11484;50.858;4.384;2023-07-30T00:24:16;7.22;;;2.90;;
22634;SDS011;11484;50.858;4.384;2023-07-30T00:26:41;9.75;;;2.88;;
22634;SDS011;11484;50.858;4.384;2023-07-30T00:29:10;9.00;;;2.80;;
22634;SDS011;11484;50.858;4.384;2023-07-30T00:31:36;9.18;;;2.80;;
22634;SDS011;11484;50.858;4.384;2023-07-30T00:34:02;8.07;;;2.67;;
22634;SDS011;11484;50.858;4.384;2023-07-30T00:36:27;8.88;;;2.75;;
22634;SDS011;11484;50.858;4.384;2023-07-30T00:38:53;5.88;;;2.70;;
22634;SDS011;11484;50.858;4.384;2023-07-30T00:41:19;9.55;;;2.92;;
22634;SDS011;11484;50.858;4.384;2023-07-30T00:43:44;8.50;;;2.72;;
22634;SDS011;11484;50.858;4.384;2023-07-30T00:46:11;11.73;;;2.78;;
22634;SDS011;11484;50.858;4.384;2023-07-30T00:48:37;7.82;;;2.58;;
22634;SDS011;11484;50.858;4.384;2023-07-30T00:51:02;9.82;;;2.85;;
22634;SDS011;11484;50.858;4.384;2023-07-30T00:53:28;10.05;;;2.60;;
22634;SDS011;11484;50.858;4.384;2023-07-30T00:55:55;7.65;;;2.42;;
22634;SDS011;11484;50.858;4.384;2023-07-30T00:58:20;8.13;;;3.55;;
22634;SDS011;11484;50.858;4.384;2023-07-30T01:00:46;7.63;;;2.50;;
22634;SDS011;11484;50.858;4.384;2023-07-30T01:03:12;8.50;;;2.90;;
22634;SDS011;11484;50.858;4.384;2023-07-30T01:05:38;9.55;;;3.15;;
22634;SDS011;11484;50.858;4.384;2023-07-30T01:08:04;9.98;;;3.10;;
22634;SDS011;11484;50.858;4.384;2023-07-30T01:10:30;9.68;;;3.38;;
22634;SDS011;11484;50.858;4.384;2023-07-30T01:12:59;9.27;;;2.85;;
22634;SDS011;11484;50.858;4.384;2023-07-30T01:15:27;10.45;;;2.53;;
22634;SDS011;11484;50.858;4.384;2023-07-30T01:17:53;8.02;;;2.72;;
22634;SDS011;11484;50.858;4.384;2023-07-30T01:20:20;9.75;;;2.55;;
22634;SDS011;11484;50.858;4.384;2023-07-30T01:22:46;11.60;;;2.40;;
22634;SDS011;11484;50.858;4.384;2023-07-30T01:25:12;6.57;;;2.55;;
22634;SDS011;11484;50.858;4.384;2023-07-30T01:27:39;10.25;;;2.25;;
22634;SDS011;11484;50.858;4.384;2023-07-30T01:32:43;10.43;;;2.38;;
22634;SDS011;11484;50.858;4.384;2023-07-30T01:35:09;10.38;;;2.35;;
22634;SDS011;11484;50.858;4.384;2023-07-30T01:37:37;11.20;;;2.72;;
22634;SDS011;11484;50.858;4.384;2023-07-30T01:40:04;9.30;;;2.50;;
22634;SDS011;11484;50.858;4.384;2023-07-30T01:42:31;11.07;;;2.38;;
22634;SDS011;11484;50.858;4.384;2023-07-30T01:44:57;5.43;;;2.30;;
22634;SDS011;11484;50.858;4.384;2023-07-30T01:47:22;6.70;;;2.28;;
22634;SDS011;11484;50.858;4.384;2023-07-30T01:49:48;7.07;;;2.30;;
22634;SDS011;11484;50.858;4.384;2023-07-30T01:52:14;10.55;;;2.47;;
22634;SDS011;11484;50.858;4.384;2023-07-30T01:54:39;11.30;;;2.63;;
22634;SDS011;11484;50.858;4.384;2023-07-30T01:57:05;9.52;;;2.17;;
22634;SDS011;11484;50.858;4.384;2023-07-30T01:59:31;11.80;;;2.70;;
22634;SDS011;11484;50.858;4.384;2023-07-30T02:01:57;7.53;;;2.30;;
22634;SDS011;11484;50.858;4.384;2023-07-30T02:04:23;8.68;;;2.10;;
22634;SDS011;11484;50.858;4.384;2023-07-30T02:06:48;11.38;;;2.30;;
22634;SDS011;11484;50.858;4.384;2023-07-30T02:09:14;9.43;;;2.58;;
22634;SDS011;11484;50.858;4.384;2023-07-30T02:11:39;9.75;;;2.60;;
22634;SDS011;11484;50.858;4.384;2023-07-30T02:14:05;9.32;;;2.35;;
22634;SDS011;11484;50.858;4.384;2023-07-30T02:16:31;9.23;;;2.40;;
22634;SDS011;11484;50.858;4.384;2023-07-30T02:18:56;7.10;;;2.22;;
22634;SDS011;11484;50.858;4.384;2023-07-30T02:21:22;10.20;;;2.28;;
22634;SDS011;11484;50.858;4.384;2023-07-30T02:23:48;9.48;;;2.30;;
22634;SDS011;11484;50.858;4.384;2023-07-30T02:26:17;6.93;;;2.10;;
22634;SDS011;11484;50.858;4.384;2023-07-30T02:28:43;9.75;;;2.38;;
22634;SDS011;11484;50.858;4.384;2023-07-30T02:31:08;8.90;;;2.28;;
22634;SDS011;11484;50.858;4.384;2023-07-30T02:33:34;8.93;;;1.92;;
22634;SDS011;11484;50.858;4.384;2023-07-30T02:35:59;12.20;;;2.35;;
22634;SDS011;11484;50.858;4.384;2023-07-30T02:38:25;10.38;;;2.63;;
22634;SDS011;11484;50.858;4.384;2023-07-30T02:40:51;10.63;;;2.13;;
22634;SDS011;11484;50.858;4.384;2023-07-30T02:43:16;11.02;;;1.90;;
22634;SDS011;11484;50.858;4.384;2023-07-30T02:45:42;8.45;;;2.42;;
22634;SDS011;11484;50.858;4.384;2023-07-30T02:48:08;8.93;;;2.20;;
22634;SDS011;11484;50.858;4.384;2023-07-30T02:50:33;9.75;;;2.05;;
22634;SDS011;11484;50.858;4.384;2023-07-30T02:52:59;8.75;;;2.13;;
22634;SDS011;11484;50.858;4.384;2023-07-30T02:55:24;6.82;;;1.70;;
22634;SDS011;11484;50.858;4.384;2023-07-30T02:57:50;10.65;;;2.25;;
22634;SDS011;11484;50.858;4.384;2023-07-30T03:00:16;8.30;;;1.63;;
22634;SDS011;11484;50.858;4.384;2023-07-30T03:02:42;10.73;;;2.20;;
22634;SDS011;11484;50.858;4.384;2023-07-30T03:05:08;9.43;;;2.20;;
22634;SDS011;11484;50.858;4.384;2023-07-30T03:07:33;6.68;;;1.63;;
22634;SDS011;11484;50.858;4.384;2023-07-30T03:10:00;10.52;;;2.17;;
22634;SDS011;11484;50.858;4.384;2023-07-30T03:12:26;10.95;;;2.28;;
22634;SDS011;11484;50.858;4.384;2023-07-30T03:14:51;11.13;;;2.80;;
22634;SDS011;11484;50.858;4.384;2023-07-30T03:17:17;10.68;;;1.80;;
22634;SDS011;11484;50.858;4.384;2023-07-30T03:19:43;9.00;;;2.25;;
22634;SDS011;11484;50.858;4.384;2023-07-30T03:22:08;11.55;;;1.98;;
22634;SDS011;11484;50.858;4.384;2023-07-30T03:24:34;11.27;;;2.30;;
22634;SDS011;11484;50.858;4.384;2023-07-30T03:26:59;7.88;;;2.20;;
22634;SDS011;11484;50.858;4.384;2023-07-30T03:29:25;14.65;;;2.40;;
22634;SDS011;11484;50.858;4.384;2023-07-30T03:31:51;11.13;;;2.20;;
22634;SDS011;11484;50.858;4.384;2023-07-30T03:34:16;11.20;;;2.40;;
22634;SDS011;11484;50.858;4.384;2023-07-30T03:36:42;8.07;;;1.98;;
22634;SDS011;11484;50.858;4.384;2023-07-30T03:39:08;7.38;;;1.70;;
22634;SDS011;11484;50.858;4.384;2023-07-30T03:41:33;11.55;;;2.20;;
22634;SDS011;11484;50.858;4.384;2023-07-30T03:44:00;11.15;;;2.00;;
22634;SDS011;11484;50.858;4.384;2023-07-30T03:46:26;9.10;;;2.22;;
22634;SDS011;11484;50.858;4.384;2023-07-30T03:48:51;8.20;;;1.90;;
22634;SDS011;11484;50.858;4.384;2023-07-30T03:51:17;10.40;;;2.10;;
22634;SDS011;11484;50.858;4.384;2023-07-30T03:53:42;6.95;;;2.22;;
22634;SDS011;11484;50.858;4.384;2023-07-30T03:56:08;9.27;;;2.13;;
22634;SDS011;11484;50.858;4.384;2023-07-30T03:58:34;13.30;;;2.33;;
22634;SDS011;11484;50.858;4.384;2023-07-30T04:01:00;9.90;;;1.95;;
22634;SDS011;11484;50.858;4.384;2023-07-30T04:03:26;7.07;;;1.75;;
22634;SDS011;11484;50.858;4.384;2023-07-30T04:05:52;10.90;;;2.00;;
22634;SDS011;11484;50.858;4.384;2023-07-30T04:08:18;11.10;;;2.00;;
22634;SDS011;11484;50.858;4.384;2023-07-30T04:10:43;10.30;;;2.00;;
22634;SDS011;11484;50.858;4.384;2023-07-30T04:13:09;14.05;;;2.10;;
22634;SDS011;11484;50.858;4.384;2023-07-30T04:15:35;9.20;;;1.90;;
22634;SDS011;11484;50.858;4.384;2023-07-30T04:18:00;9.90;;;2.08;;
22634;SDS011;11484;50.858;4.384;2023-07-30T04:20:26;13.13;;;2.35;;
22634;SDS011;11484;50.858;4.384;2023-07-30T04:22:51;10.43;;;2.20;;
22634;SDS011;11484;50.858;4.384;2023-07-30T04:25:17;13.95;;;2.40;;
22634;SDS011;11484;50.858;4.384;2023-07-30T04:27:43;11.65;;;2.55;;
22634;SDS011;11484;50.858;4.384;2023-07-30T04:30:09;9.35;;;1.98;;
22634;SDS011;11484;50.858;4.384;2023-07-30T04:32:35;7.63;;;1.80;;
22634;SDS011;11484;50.858;4.384;2023-07-30T04:35:01;10.02;;;1.80;;
22634;SDS011;11484;50.858;4.384;2023-07-30T04:37:28;7.50;;;1.83;;
22634;SDS011;11484;50.858;4.384;2023-07-30T04:39:53;11.02;;;2.20;;
22634;SDS011;11484;50.858;4.384;2023-07-30T04:42:19;10.25;;;1.90;;
22634;SDS011;11484;50.858;4.384;2023-07-30T04:44:45;14.18;;;1.88;;
22634;SDS011;11484;50.858;4.384;2023-07-30T04:47:10;14.05;;;2.72;;
22634;SDS011;11484;50.858;4.384;2023-07-30T04:49:36;13.60;;;2.83;;
22634;SDS011;11484;50.858;4.384;2023-07-30T04:52:05;11.05;;;2.15;;
22634;SDS011;11484;50.858;4.384;2023-07-30T04:54:34;9.57;;;1.92;;
22634;SDS011;11484;50.858;4.384;2023-07-30T04:57:03;9.18;;;2.25;;
22634;SDS011;11484;50.858;4.384;2023-07-30T04:59:29;14.15;;;2.28;;
22634;SDS011;11484;50.858;4.384;2023-07-30T05:01:54;8.80;;;1.98;;
22634;SDS011;11484;50.858;4.384;2023-07-30T05:04:20;11.85;;;2.28;;
22634;SDS011;11484;50.858;4.384;2023-07-30T05:06:46;11.43;;;2.17;;
22634;SDS011;11484;50.858;4.384;2023-07-30T05:09:11;14.27;;;3.03;;
22634;SDS011;11484;50.858;4.384;2023-07-30T05:11:38;11.10;;;2.15;;
22634;SDS011;11484;50.858;4.384;2023-07-30T05:14:04;12.02;;;2.17;;
22634;SDS011;11484;50.858;4.384;2023-07-30T05:16:30;12.07;;;2.42;;
22634;SDS011;11484;50.858;4.384;2023-07-30T05:18:55;5.55;;;1.83;;
22634;SDS011;11484;50.858;4.384;2023-07-30T05:21:21;12.75;;;2.20;;
22634;SDS011;11484;50.858;4.384;2023-07-30T05:23:47;10.57;;;1.83;;
22634;SDS011;11484;50.858;4.384;2023-07-30T05:26:12;12.05;;;2.40;;
22634;SDS011;11484;50.858;4.384;2023-07-30T05:28:38;13.25;;;2.47;;
22634;SDS011;11484;50.858;4.384;2023-07-30T05:31:03;11.52;;;1.88;;
22634;SDS011;11484;50.858;4.384;2023-07-30T05:33:29;11.13;;;1.98;;
22634;SDS011;11484;50.858;4.384;2023-07-30T05:35:55;12.45;;;2.35;;
22634;SDS011;11484;50.858;4.384;2023-07-30T05:38:21;14.23;;;2.38;;
22634;SDS011;11484;50.858;4.384;2023-07-30T05:40:46;10.98;;;2.47;;
22634;SDS011;11484;50.858;4.384;2023-07-30T05:43:12;15.27;;;2.50;;
22634;SDS011;11484;50.858;4.384;2023-07-30T05:45:38;12.80;;;2.40;;
22634;SDS011;11484;50.858;4.384;2023-07-30T05:48:04;13.55;;;2.40;;
22634;SDS011;11484;50.858;4.384;2023-07-30T05:50:29;10.98;;;2.03;;
22634;SDS011;11484;50.858;4.384;2023-07-30T05:52:55;11.50;;;1.90;;
22634;SDS011;11484;50.858;4.384;2023-07-30T05:55:21;13.07;;;2.72;;
22634;SDS011;11484;50.858;4.384;2023-07-30T05:57:46;11.32;;;2.22;;
22634;SDS011;11484;50.858;4.384;2023-07-30T06:00:12;12.25;;;1.83;;
22634;SDS011;11484;50.858;4.384;2023-07-30T06:02:38;14.15;;;2.50;;
22634;SDS011;11484;50.858;4.384;2023-07-30T06:05:03;14.10;;;3.80;;
22634;SDS011;11484;50.858;4.384;2023-07-30T06:07:29;11.88;;;3.17;;
22634;SDS011;11484;50.858;4.384;2023-07-30T06:09:55;15.57;;;2.45;;
22634;SDS011;11484;50.858;4.384;2023-07-30T06:12:21;15.25;;;2.05;;
22634;SDS011;11484;50.858;4.384;2023-07-30T06:14:46;13.35;;;2.67;;
22634;SDS011;11484;50.858;4.384;2023-07-30T06:17:12;15.45;;;3.20;;
22634;SDS011;11484;50.858;4.384;2023-07-30T06:19:38;10.77;;;2.47;;
22634;SDS011;11484;50.858;4.384;2023-07-30T06:22:03;9.63;;;2.28;;
22634;SDS011;11484;50.858;4.384;2023-07-30T06:24:29;10.40;;;2.25;;
22634;SDS011;11484;50.858;4.384;2023-07-30T06:26:55;11.10;;;2.03;;
22634;SDS011;11484;50.858;4.384;2023-07-30T06:29:20;9.48;;;2.00;;
22634;SDS011;11484;50.858;4.384;2023-07-30T06:31:46;10.95;;;1.80;;
22634;SDS011;11484;50.858;4.384;2023-07-30T06:34:11;15.27;;;2.08;;
22634;SDS011;11484;50.858;4.384;2023-07-30T06:36:40;8.65;;;2.15;;
22634;SDS011;11484;50.858;4.384;2023-07-30T06:39:06;13.93;;;2.80;;
22634;SDS011;11484;50.858;4.384;2023-07-30T06:41:31;8.82;;;2.08;;
22634;SDS011;11484;50.858;4.384;2023-07-30T06:43:57;11.85;;;2.10;;
22634;SDS011;11484;50.858;4.384;2023-07-30T06:46:23;11.35;;;2.45;;
22634;SDS011;11484;50.858;4.384;2023-07-30T06:48:48;13.25;;;2.33;;
22634;SDS011;11484;50.858;4.384;2023-07-30T06:51:14;17.88;;;2.45;;
22634;SDS011;11484;50.858;4.384;2023-07-30T06:53:39;10.68;;;2.40;;
22634;SDS011;11484;50.858;4.384;2023-07-30T06:56:05;11.27;;;2.47;;
22634;SDS011;11484;50.858;4.384;2023-07-30T06:58:31;10.00;;;2.00;;
22634;SDS011;11484;50.858;4.384;2023-07-30T07:00:56;12.30;;;2.47;;
22634;SDS011;11484;50.858;4.384;2023-07-30T07:03:22;11.88;;;2.15;;
22634;SDS011;11484;50.858;4.384;2023-07-30T07:05:54;13.45;;;2.60;;
22634;SDS011;11484;50.858;4.384;2023-07-30T07:08:20;11.23;;;2.08;;
22634;SDS011;11484;50.858;4.384;2023-07-30T07:10:46;9.13;;;2.20;;
22634;SDS011;11484;50.858;4.384;2023-07-30T07:13:12;11.10;;;1.85;;
22634;SDS011;11484;50.858;4.384;2023-07-30T07:15:40;12.05;;;2.00;;
22634;SDS011;11484;50.858;4.384;2023-07-30T07:18:07;12.30;;;2.38;;
22634;SDS011;11484;50.858;4.384;2023-07-30T07:20:32;9.02;;;2.00;;
22634;SDS011;11484;50.858;4.384;2023-07-30T07:22:58;10.43;;;2.20;;
22634;SDS011;11484;50.858;4.384;2023-07-30T07:25:24;7.88;;;1.83;;
22634;SDS011;11484;50.858;4.384;2023-07-30T07:27:50;11.15;;;2.22;;
22634;SDS011;11484;50.858;4.384;2023-07-30T07:30:15;8.07;;;2.13;;
22634;SDS011;11484;50.858;4.384;2023-07-30T07:32:41;7.22;;;1.90;;
22634;SDS011;11484;50.858;4.384;2023-07-30T07:35:07;9.85;;;1.80;;
22634;SDS011;11484;50.858;4.384;2023-07-30T07:37:33;9.05;;;1.92;;
22634;SDS011;11484;50.858;4.384;2023-07-30T07:40:02;9.38;;;1.90;;
22634;SDS011;11484;50.858;4.384;2023-07-30T07:42:29;9.20;;;2.50;;
22634;SDS011;11484;50.858;4.384;2023-07-30T07:44:55;11.52;;;2.38;;
22634;SDS011;11484;50.858;4.384;2023-07-30T07:47:21;8.82;;;1.92;;
22634;SDS011;11484;50.858;4.384;2023-07-30T07:49:47;12.07;;;2.50;;
22634;SDS011;11484;50.858;4.384;2023-07-30T07:52:13;8.32;;;2.03;;
22634;SDS011;11484;50.858;4.384;2023-07-30T07:54:40;8.48;;;1.88;;
22634;SDS011;11484;50.858;4.384;2023-07-30T07:57:07;12.10;;;5.38;;
22634;SDS011;11484;50.858;4.384;2023-07-30T07:59:32;13.93;;;2.40;;
22634;SDS011;11484;50.858;4.384;2023-07-30T08:01:58;8.93;;;1.88;;
22634;SDS011;11484;50.858;4.384;2023-07-30T08:04:24;10.98;;;2.42;;
22634;SDS011;11484;50.858;4.384;2023-07-30T08:06:49;10.10;;;2.03;;
22634;SDS011;11484;50.858;4.384;2023-07-30T08:09:15;8.68;;;2.08;;
22634;SDS011;11484;50.858;4.384;2023-07-30T08:11:41;8.45;;;1.90;;
22634;SDS011;11484;50.858;4.384;2023-07-30T08:14:07;8.85;;;1.95;;
22634;SDS011;11484;50.858;4.384;2023-07-30T08:16:32;6.38;;;2.20;;
22634;SDS011;11484;50.858;4.384;2023-07-30T08:18:58;10.50;;;2.25;;
22634;SDS011;11484;50.858;4.384;2023-07-30T08:21:23;9.05;;;2.00;;
22634;SDS011;11484;50.858;4.384;2023-07-30T08:23:49;8.02;;;1.88;;
22634;SDS011;11484;50.858;4.384;2023-07-30T08:26:15;7.97;;;1.65;;
22634;SDS011;11484;50.858;4.384;2023-07-30T08:28:41;9.00;;;1.88;;
22634;SDS011;11484;50.858;4.384;2023-07-30T08:31:06;11.02;;;2.08;;
22634;SDS011;11484;50.858;4.384;2023-07-30T08:33:32;10.57;;;2.22;;
22634;SDS011;11484;50.858;4.384;2023-07-30T08:35:59;9.23;;;1.70;;
22634;SDS011;11484;50.858;4.384;2023-07-30T08:38:25;8.98;;;2.03;;
22634;SDS011;11484;50.858;4.384;2023-07-30T08:40:51;10.48;;;2.25;;
22634;SDS011;11484;50.858;4.384;2023-07-30T08:43:18;7.50;;;2.47;;
22634;SDS011;11484;50.858;4.384;2023-07-30T08:45:44;10.38;;;2.00;;
22634;SDS011;11484;50.858;4.384;2023-07-30T08:48:10;9.63;;;1.98;;
22634;SDS011;11484;50.858;4.384;2023-07-30T08:50:36;7.63;;;1.70;;
22634;SDS011;11484;50.858;4.384;2023-07-30T08:53:04;7.60;;;2.10;;
22634;SDS011;11484;50.858;4.384;2023-07-30T08:55:33;9.73;;;2.25;;
22634;SDS011;11484;50.858;4.384;2023-07-30T08:58:01;10.07;;;2.22;;
22634;SDS011;11484;50.858;4.384;2023-07-30T09:00:30;11.85;;;1.75;;
22634;SDS011;11484;50.858;4.384;2023-07-30T09:02:59;9.70;;;1.90;;
22634;SDS011;11484;50.858;4.384;2023-07-30T09:05:25;9.80;;;2.58;;
22634;SDS011;11484;50.858;4.384;2023-07-30T09:07:54;8.25;;;1.80;;
22634;SDS011;11484;50.858;4.384;2023-07-30T09:10:21;9.85;;;1.85;;
22634;SDS011;11484;50.858;4.384;2023-07-30T09:12:52;10.65;;;1.92;;
22634;SDS011;11484;50.858;4.384;2023-07-30T09:15:20;9.18;;;2.00;;
22634;SDS011;11484;50.858;4.384;2023-07-30T09:17:58;8.55;;;2.10;;
22634;SDS011;11484;50.858;4.384;2023-07-30T09:20:27;8.88;;;1.90;;
22634;SDS011;11484;50.858;4.384;2023-07-30T09:22:55;8.52;;;1.75;;
22634;SDS011;11484;50.858;4.384;2023-07-30T09:25:22;10.35;;;1.90;;
22634;SDS011;11484;50.858;4.384;2023-07-30T09:27:48;5.10;;;1.42;;
22634;SDS011;11484;50.858;4.384;2023-07-30T09:30:15;8.98;;;1.58;;
22634;SDS011;11484;50.858;4.384;2023-07-30T09:32:50;7.85;;;1.45;;
22634;SDS011;11484;50.858;4.384;2023-07-30T09:35:18;7.15;;;1.73;;
22634;SDS011;11484;50.858;4.384;2023-07-30T09:37:44;9.18;;;1.77;;
22634;SDS011;11484;50.858;4.384;2023-07-30T09:40:10;9.10;;;1.83;;
22634;SDS011;11484;50.858;4.384;2023-07-30T09:42:38;5.55;;;1.80;;
22634;SDS011;11484;50.858;4.384;2023-07-30T09:45:08;9.30;;;1.90;;
22634;SDS011;11484;50.858;4.384;2023-07-30T09:47:45;7.15;;;1.85;;
22634;SDS011;11484;50.858;4.384;2023-07-30T09:50:13;8.80;;;1.90;;
22634;SDS011;11484;50.858;4.384;2023-07-30T09:52:39;5.90;;;1.83;;
22634;SDS011;11484;50.858;4.384;2023-07-30T09:55:06;7.93;;;2.22;;
22634;SDS011;11484;50.858;4.384;2023-07-30T09:57:32;11.32;;;2.78;;
22634;SDS011;11484;50.858;4.384;2023-07-30T09:59:58;9.60;;;2.22;;
22634;SDS011;11484;50.858;4.384;2023-07-30T10:02:24;10.57;;;2.05;;
22634;SDS011;11484;50.858;4.384;2023-07-30T10:04:52;8.30;;;1.75;;
22634;SDS011;11484;50.858;4.384;2023-07-30T10:07:21;10.80;;;1.92;;
22634;SDS011;11484;50.858;4.384;2023-07-30T10:09:48;10.63;;;1.98;;
22634;SDS011;11484;50.858;4.384;2023-07-30T10:12:20;5.65;;;1.95;;
22634;SDS011;11484;50.858;4.384;2023-07-30T10:14:48;6.00;;;1.50;;
22634;SDS011;11484;50.858;4.384;2023-07-30T10:17:14;9.82;;;1.80;;
22634;SDS011;11484;50.858;4.384;2023-07-30T10:19:43;7.97;;;1.98;;
22634;SDS011;11484;50.858;4.384;2023-07-30T10:24:39;9.80;;;2.25;;
22634;SDS011;11484;50.858;4.384;2023-07-30T10:27:06;6.93;;;1.85;;
22634;SDS011;11484;50.858;4.384;2023-07-30T10:29:34;12.65;;;3.45;;
22634;SDS011;11484;50.858;4.384;2023-07-30T10:32:01;6.70;;;1.85;;
22634;SDS011;11484;50.858;4.384;2023-07-30T10:34:42;6.85;;;1.80;;
22634;SDS011;11484;50.858;4.384;2023-07-30T10:37:17;6.53;;;1.70;;
22634;SDS011;11484;50.858;4.384;2023-07-30T10:39:43;6.93;;;1.30;;
22634;SDS011;11484;50.858;4.384;2023-07-30T10:42:12;8.18;;;1.80;;
22634;SDS011;11484;50.858;4.384;2023-07-30T10:44:40;5.50;;;1.50;;
22634;SDS011;11484;50.858;4.384;2023-07-30T10:47:09;6.97;;;1.73;;
22634;SDS011;11484;50.858;4.384;2023-07-30T10:49:38;5.43;;;1.60;;
22634;SDS011;11484;50.858;4.384;2023-07-30T10:52:05;7.13;;;1.83;;
22634;SDS011;11484;50.858;4.384;2023-07-30T10:54:35;6.90;;;1.55;;
22634;SDS011;11484;50.858;4.384;2023-07-30T10:57:02;6.38;;;1.27;;
22634;SDS011;11484;50.858;4.384;2023-07-30T10:59:35;6.53;;;1.60;;
22634;SDS011;11484;50.858;4.384;2023-07-30T11:02:02;7.97;;;1.80;;
22634;SDS011;11484;50.858;4.384;2023-07-30T11:04:28;6.80;;;1.50;;
22634;SDS011;11484;50.858;4.384;2023-07-30T11:06:58;7.83;;;1.60;;
22634;SDS011;11484;50.858;4.384;2023-07-30T11:09:25;7.25;;;1.35;;
22634;SDS011;11484;50.858;4.384;2023-07-30T11:11:52;9.45;;;1.98;;
22634;SDS011;11484;50.858;4.384;2023-07-30T11:14:20;6.00;;;1.90;;
22634;SDS011;11484;50.858;4.384;2023-07-30T11:16:51;4.72;;;1.50;;
22634;SDS011;11484;50.858;4.384;2023-07-30T11:19:19;10.45;;;1.83;;
22634;SDS011;11484;50.858;4.384;2023-07-30T11:21:45;6.10;;;2.03;;
22634;SDS011;11484;50.858;4.384;2023-07-30T11:24:12;6.22;;;1.73;;
22634;SDS011;11484;50.858;4.384;2023-07-30T11:26:38;7.85;;;2.10;;
22634;SDS011;11484;50.858;4.384;2023-07-30T11:29:16;7.47;;;1.52;;
22634;SDS011;11484;50.858;4.384;2023-07-30T11:31:45;7.60;;;1.73;;
22634;SDS011;11484;50.858;4.384;2023-07-30T11:34:15;4.22;;;1.20;;
22634;SDS011;11484;50.858;4.384;2023-07-30T11:36:43;5.15;;;1.70;;
22634;SDS011;11484;50.858;4.384;2023-07-30T11:39:10;5.40;;;1.20;;
22634;SDS011;11484;50.858;4.384;2023-07-30T11:41:36;5.65;;;1.70;;
22634;SDS011;11484;50.858;4.384;2023-07-30T11:44:04;5.88;;;1.60;;
22634;SDS011;11484;50.858;4.384;2023-07-30T11:46:29;3.63;;;1.48;;
22634;SDS011;11484;50.858;4.384;2023-07-30T11:49:14;4.70;;;1.00;;
22634;SDS011;11484;50.858;4.384;2023-07-30T11:51:46;5.28;;;1.30;;
22634;SDS011;11484;50.858;4.384;2023-07-30T11:54:20;4.35;;;0.90;;
22634;SDS011;11484;50.858;4.384;2023-07-30T11:56:47;4.57;;;1.20;;
22634;SDS011;11484;50.858;4.384;2023-07-30T11:59:19;5.53;;;0.98;;
22634;SDS011;11484;50.858;4.384;2023-07-30T12:01:46;4.18;;;1.30;;
22634;SDS011;11484;50.858;4.384;2023-07-30T12:04:12;5.13;;;1.00;;
22634;SDS011;11484;50.858;4.384;2023-07-30T12:06:39;4.07;;;1.13;;
22634;SDS011;11484;50.858;4.384;2023-07-30T12:09:09;4.70;;;1.20;;
22634;SDS011;11484;50.858;4.384;2023-07-30T12:12:04;5.82;;;1.23;;
22634;SDS011;11484;50.858;4.384;2023-07-30T12:14:42;3.75;;;1.08;;
22634;SDS011;11484;50.858;4.384;2023-07-30T12:17:08;5.03;;;1.10;;
22634;SDS011;11484;50.858;4.384;2023-07-30T12:19:34;5.80;;;1.00;;
22634;SDS011;11484;50.858;4.384;2023-07-30T12:22:03;7.10;;;1.17;;
22634;SDS011;11484;50.858;4.384;2023-07-30T12:24:29;3.88;;;1.20;;
22634;SDS011;11484;50.858;4.384;2023-07-30T12:26:54;5.20;;;1.10;;
22634;SDS011;11484;50.858;4.384;2023-07-30T12:29:20;5.18;;;1.23;;
22634;SDS011;11484;50.858;4.384;2023-07-30T12:31:46;4.25;;;1.10;;
22634;SDS011;11484;50.858;4.384;2023-07-30T12:34:12;5.15;;;1.10;;
22634;SDS011;11484;50.858;4.384;2023-07-30T12:36:38;5.90;;;1.30;;
22634;SDS011;11484;50.858;4.384;2023-07-30T12:39:06;5.50;;;1.38;;
22634;SDS011;11484;50.858;4.384;2023-07-30T12:41:33;6.15;;;1.33;;
22634;SDS011;11484;50.858;4.384;2023-07-30T12:43:58;4.70;;;1.05;;
22634;SDS011;11484;50.858;4.384;2023-07-30T12:46:24;5.00;;;1.40;;
22634;SDS011;11484;50.858;4.384;2023-07-30T12:48:54;4.90;;;1.63;;
22634;SDS011;11484;50.858;4.384;2023-07-30T12:51:21;5.60;;;1.00;;
22634;SDS011;11484;50.858;4.384;2023-07-30T12:53:47;4.72;;;1.42;;
22634;SDS011;11484;50.858;4.384;2023-07-30T12:56:13;4.10;;;1.60;;
22634;SDS011;11484;50.858;4.384;2023-07-30T12:58:40;7.72;;;1.48;;
22634;SDS011;11484;50.858;4.384;2023-07-30T13:01:06;6.40;;;1.30;;
22634;SDS011;11484;50.858;4.384;2023-07-30T13:03:35;4.30;;;1.33;;
22634;SDS011;11484;50.858;4.384;2023-07-30T13:06:01;5.45;;;1.23;;
22634;SDS011;11484;50.858;4.384;2023-07-30T13:08:27;5.10;;;1.10;;
22634;SDS011;11484;50.858;4.384;2023-07-30T13:10:53;4.82;;;1.30;;
22634;SDS011;11484;50.858;4.384;2023-07-30T13:13:20;3.15;;;0.80;;
22634;SDS011;11484;50.858;4.384;2023-07-30T13:15:48;3.22;;;0.93;;
22634;SDS011;11484;50.858;4.384;2023-07-30T13:18:14;4.10;;;0.90;;
22634;SDS011;11484;50.858;4.384;2023-07-30T13:20:40;3.22;;;1.05;;
22634;SDS011;11484;50.858;4.384;2023-07-30T13:23:05;6.35;;;1.65;;
22634;SDS011;11484;50.858;4.384;2023-07-30T13:25:32;5.05;;;1.65;;
22634;SDS011;11484;50.858;4.384;2023-07-30T13:27:58;4.85;;;1.25;;
22634;SDS011;11484;50.858;4.384;2023-07-30T13:30:23;3.90;;;1.58;;
22634;SDS011;11484;50.858;4.384;2023-07-30T13:32:54;4.65;;;1.52;;
22634;SDS011;11484;50.858;4.384;2023-07-30T13:35:20;3.83;;;1.27;;
22634;SDS011;11484;50.858;4.384;2023-07-30T13:37:45;7.03;;;1.50;;
22634;SDS011;11484;50.858;4.384;2023-07-30T13:40:11;4.97;;;1.50;;
22634;SDS011;11484;50.858;4.384;2023-07-30T13:42:37;4.80;;;1.60;;
22634;SDS011;11484;50.858;4.384;2023-07-30T13:45:03;7.05;;;1.40;;
22634;SDS011;11484;50.858;4.384;2023-07-30T13:47:29;5.07;;;1.60;;
22634;SDS011;11484;50.858;4.384;2023-07-30T13:49:54;3.72;;;1.25;;
22634;SDS011;11484;50.858;4.384;2023-07-30T13:52:23;4.20;;;1.50;;
22634;SDS011;11484;50.858;4.384;2023-07-30T13:54:49;7.32;;;1.50;;
22634;SDS011;11484;50.858;4.384;2023-07-30T13:57:24;5.60;;;1.67;;
22634;SDS011;11484;50.858;4.384;2023-07-30T13:59:51;3.45;;;1.30;;
22634;SDS011;11484;50.858;4.384;2023-07-30T14:02:17;5.55;;;1.80;;
22634;SDS011;11484;50.858;4.384;2023-07-30T14:04:42;5.32;;;1.10;;
22634;SDS011;11484;50.858;4.384;2023-07-30T14:07:08;3.47;;;1.20;;
22634;SDS011;11484;50.858;4.384;2023-07-30T14:09:34;4.30;;;1.38;;
22634;SDS011;11484;50.858;4.384;2023-07-30T14:12:04;7.75;;;1.95;;
22634;SDS011;11484;50.858;4.384;2023-07-30T14:14:30;5.65;;;1.42;;
22634;SDS011;11484;50.858;4.384;2023-07-30T14:16:56;6.30;;;1.77;;
22634;SDS011;11484;50.858;4.384;2023-07-30T14:19:22;5.65;;;1.60;;
22634;SDS011;11484;50.858;4.384;2023-07-30T14:21:48;4.35;;;1.55;;
22634;SDS011;11484;50.858;4.384;2023-07-30T14:24:13;4.43;;;1.60;;
22634;SDS011;11484;50.858;4.384;2023-07-30T14:26:39;8.43;;;1.65;;
22634;SDS011;11484;50.858;4.384;2023-07-30T14:29:05;5.90;;;2.00;;
22634;SDS011;11484;50.858;4.384;2023-07-30T14:31:30;6.57;;;1.80;;
22634;SDS011;11484;50.858;4.384;2023-07-30T14:33:56;5.30;;;1.50;;
22634;SDS011;11484;50.858;4.384;2023-07-30T14:36:23;6.22;;;1.65;;
22634;SDS011;11484;50.858;4.384;2023-07-30T14:38:48;4.55;;;1.55;;
22634;SDS011;11484;50.858;4.384;2023-07-30T14:41:14;9.32;;;2.33;;
22634;SDS011;11484;50.858;4.384;2023-07-30T14:43:40;6.45;;;1.83;;
22634;SDS011;11484;50.858;4.384;2023-07-30T14:46:06;5.25;;;1.55;;